Time;durP1;ratioP1;P1;durP2;ratioP2;P2;SDS_P1;SDS_P2;PMS_P1;PMS_P2;Temp;Humidity;BMP_temperature;BMP_pressure;BME280_temperature;BME280_humidity;BME280_pressure;Samples;Min_cycle;Max_cycle;Signal;HPM_P1;HPM_P2
2024/04/19 00:02:36;;;;;;;9.20;4.25;;;;;;;8.59;100.00;101343.84;5494384;26;20382;-66
2024/04/19 00:05:24;;;;;;;7.60;3.20;;;;;;;8.58;100.00;101347.59;5510133;26;20297;-67
2024/04/19 00:08:12;;;;;;;7.90;3.50;;;;;;;8.53;100.00;101341.00;5501610;26;20001;-68
2024/04/19 00:11:00;;;;;;;6.47;3.20;;;;;;;8.49;100.00;101331.69;5497410;26;19993;-66
2024/04/19 00:13:49;;;;;;;8.07;3.40;;;;;;;8.46;100.00;101332.16;5579012;25;20024;-67
2024/04/19 00:16:37;;;;;;;9.50;2.90;;;;;;;8.45;100.00;101322.38;5609350;25;20011;-68
2024/04/19 00:19:25;;;;;;;8.98;3.40;;;;;;;8.44;100.00;101318.03;5525674;25;20044;-67
2024/04/19 00:22:13;;;;;;;8.07;3.40;;;;;;;8.45;100.00;101308.78;5511013;25;20013;-68
2024/04/19 00:25:01;;;;;;;8.15;3.10;;;;;;;8.45;100.00;101299.84;5536223;25;20037;-69
2024/04/19 00:27:49;;;;;;;10.23;3.45;;;;;;;8.42;100.00;101301.16;5535670;25;20067;-68
2024/04/19 00:30:39;;;;;;;8.20;2.83;;;;;;;8.43;100.00;101297.34;5506119;25;19997;-68
2024/04/19 00:33:27;;;;;;;5.53;2.80;;;;;;;8.41;100.00;101290.50;5526437;25;20327;-68
2024/04/19 00:36:16;;;;;;;8.32;3.10;;;;;;;8.37;100.00;101284.72;5548813;25;20052;-68
2024/04/19 00:39:04;;;;;;;9.57;3.53;;;;;;;8.37;100.00;101284.72;5545696;25;20098;-68
2024/04/19 00:41:56;;;;;;;5.47;2.97;;;;;;;8.37;100.00;101275.72;5505766;25;20002;-67
2024/04/19 00:44:44;;;;;;;6.07;2.97;;;;;;;8.33;100.00;101269.97;5535104;25;20016;-68
2024/04/19 00:47:32;;;;;;;9.52;3.40;;;;;;;8.29;100.00;101263.38;5527593;25;20457;-68
2024/04/19 00:50:20;;;;;;;7.15;3.30;;;;;;;8.30;100.00;101265.03;5499269;26;20002;-68
2024/04/19 00:53:09;;;;;;;7.22;3.28;;;;;;;8.31;100.00;101253.09;5519724;25;20003;-68
2024/04/19 00:56:01;;;;;;;8.25;2.92;;;;;;;8.30;100.00;101248.75;5535974;25;19997;-68
2024/04/19 00:58:50;;;;;;;6.80;3.05;;;;;;;8.30;100.00;101240.59;5498052;26;20005;-68
2024/04/19 01:01:38;;;;;;;9.95;3.00;;;;;;;8.31;100.00;101234.09;5478035;25;19997;-68
2024/04/19 01:04:27;;;;;;;5.30;2.92;;;;;;;8.29;100.00;101231.59;5509553;25;20355;-68
2024/04/19 01:07:15;;;;;;;6.22;3.35;;;;;;;8.31;100.00;101229.47;5505395;25;20000;-68
2024/04/19 01:10:04;;;;;;;6.72;3.33;;;;;;;8.28;100.00;101223.72;5561410;25;20030;-68
2024/04/19 01:12:52;;;;;;;5.28;2.92;;;;;;;8.27;100.00;101216.63;5560657;25;19993;-68
2024/04/19 01:15:43;;;;;;;6.88;3.15;;;;;;;8.24;100.00;101217.13;5559849;25;20008;-68
2024/04/19 01:18:31;;;;;;;8.18;3.47;;;;;;;8.25;100.00;101213.34;5506515;25;20010;-68
2024/04/19 01:21:21;;;;;;;7.00;3.75;;;;;;;8.26;100.00;101212.28;5488133;26;20014;-69
2024/04/19 01:24:26;;;;;;;8.52;3.65;;;;;;;8.26;100.00;101199.53;5488513;26;20002;-69
2024/04/19 01:27:14;;;;;;;5.97;3.42;;;;;;;8.25;100.00;101197.03;5531504;25;20376;-68
2024/04/19 01:30:02;;;;;;;6.63;3.30;;;;;;;8.23;100.00;101182.91;5509738;25;19997;-68
2024/04/19 01:32:51;;;;;;;5.30;3.40;;;;;;;8.21;100.00;101175.00;5522822;26;20007;-68
2024/04/19 01:35:39;;;;;;;6.40;3.00;;;;;;;8.23;100.00;101169.34;5523766;26;19997;-69
2024/04/19 01:38:27;;;;;;;9.57;4.00;;;;;;;8.20;100.00;101157.09;5520207;25;20004;-69
2024/04/19 01:41:15;;;;;;;7.03;3.67;;;;;;;8.20;100.00;101146.22;5522600;26;20085;-69
2024/04/19 01:44:05;;;;;;;4.18;3.08;;;;;;;8.19;100.00;101150.00;5523903;26;20394;-69
2024/04/19 01:46:54;;;;;;;7.47;3.85;;;;;;;8.19;100.00;101143.75;5508783;26;20006;-68
2024/04/19 01:49:42;;;;;;;6.82;3.80;;;;;;;8.19;100.00;101132.91;5521117;25;20112;-69
2024/04/19 01:52:30;;;;;;;5.72;3.65;;;;;;;8.19;100.00;101127.47;5560390;25;20019;-69
2024/04/19 01:55:18;;;;;;;7.50;3.42;;;;;;;8.18;100.00;101128.50;5527096;25;19994;-69
2024/04/19 01:58:08;;;;;;;7.93;3.75;;;;;;;8.17;100.00;101113.31;5519516;25;19998;-68
2024/04/19 02:00:56;;;;;;;4.72;3.42;;;;;;;8.16;100.00;101117.09;5495477;26;20410;-69
2024/04/19 02:03:44;;;;;;;6.85;3.67;;;;;;;8.16;100.00;101104.34;5522620;26;20520;-69
2024/04/19 02:06:33;;;;;;;7.05;3.92;;;;;;;8.15;100.00;101094.53;5522843;26;20073;-68
2024/04/19 02:09:21;;;;;;;5.63;3.22;;;;;;;8.15;100.00;101091.00;5503458;25;20001;-68
2024/04/19 02:12:09;;;;;;;6.20;3.40;;;;;;;8.15;100.00;101091.81;5523408;26;20007;-68
2024/04/19 02:14:57;;;;;;;7.80;3.38;;;;;;;8.16;100.00;101084.53;5552479;25;20001;-69
2024/04/19 02:17:48;;;;;;;6.03;3.30;;;;;;;8.18;100.00;101074.22;5557645;25;20016;-69
2024/04/19 02:20:37;;;;;;;4.68;2.92;;;;;;;8.18;100.00;101061.50;5526027;26;20158;-69
2024/04/19 02:23:37;;;;;;;6.75;3.47;;;;;;;8.18;100.00;101066.09;5524755;26;20011;-68
2024/04/19 02:26:25;;;;;;;7.03;3.10;;;;;;;8.16;100.00;101063.63;5471621;26;20008;-68
2024/04/19 02:32:20;;;;;;;6.78;3.10;;;;;;;8.08;100.00;101045.03;5496597;26;20016;-69
2024/04/19 02:35:08;;;;;;;4.97;2.95;;;;;;;8.10;100.00;101042.91;5522431;26;20005;-68
2024/04/19 02:37:56;;;;;;;5.97;3.38;;;;;;;8.08;100.00;101029.59;5481724;25;20000;-69
2024/04/19 02:40:44;;;;;;;7.22;3.03;;;;;;;8.08;100.00;101024.16;5532775;25;20005;-69
2024/04/19 02:43:32;;;;;;;7.10;3.28;;;;;;;8.10;100.00;101035.59;5558924;25;20079;-68
2024/04/19 02:46:21;;;;;;;5.82;3.28;;;;;;;8.06;100.00;101020.88;5482879;25;20000;-69
2024/04/19 02:49:09;;;;;;;6.28;3.17;;;;;;;8.04;100.00;101017.56;5491734;25;20001;-69
2024/04/19 02:51:59;;;;;;;4.70;2.63;;;;;;;8.04;100.00;101011.34;5558068;25;20326;-69
2024/04/19 02:54:47;;;;;;;6.93;3.30;;;;;;;8.03;100.00;100999.66;5534160;25;20000;-69
2024/04/19 02:57:35;;;;;;;9.82;3.72;;;;;;;7.99;100.00;100998.50;5560843;25;20005;-69
2024/04/19 03:00:23;;;;;;;7.70;3.42;;;;;;;7.97;100.00;100997.91;5533727;25;20385;-68
2024/04/19 03:03:12;;;;;;;4.75;3.08;;;;;;;7.98;100.00;100991.41;5510653;25;20001;-68
2024/04/19 03:06:00;;;;;;;6.82;3.50;;;;;;;7.97;100.00;100987.06;5532979;25;19997;-68
2024/04/19 03:08:48;;;;;;;7.22;3.42;;;;;;;7.96;100.00;100979.16;5559270;25;20032;-68
2024/04/19 03:11:36;;;;;;;6.25;3.30;;;;;;;7.97;100.00;100976.22;5493625;26;20017;-68
2024/04/19 03:14:26;;;;;;;8.18;3.65;;;;;;;7.95;100.00;100958.53;5484609;26;20014;-68
2024/04/19 03:17:14;;;;;;;6.60;3.38;;;;;;;7.97;100.00;100957.22;5492066;26;20005;-68
2024/04/19 03:20:03;;;;;;;7.97;3.80;;;;;;;7.94;100.00;100949.59;5518453;26;20005;-68
2024/04/19 03:22:51;;;;;;;6.22;3.17;;;;;;;7.94;100.00;100952.31;5522153;26;20337;-68
2024/04/19 03:25:39;;;;;;;9.65;3.53;;;;;;;7.96;100.00;100939.31;5471370;26;20009;-69
2024/04/19 03:28:28;;;;;;;7.05;3.63;;;;;;;7.94;100.00;100946.03;5523574;26;20012;-69
2024/04/19 03:31:16;;;;;;;9.77;4.00;;;;;;;7.90;100.00;100940.28;5518331;26;20489;-69
2024/04/19 03:34:04;;;;;;;7.80;3.70;;;;;;;7.92;100.00;100921.06;5521629;26;20472;-68
2024/04/19 03:36:52;;;;;;;6.93;3.30;;;;;;;7.93;100.00;100915.38;5519149;26;20016;-69
2024/04/19 03:39:40;;;;;;;7.88;3.63;;;;;;;7.93;100.00;100920.78;5496225;26;20344;-69
2024/04/19 03:42:32;;;;;;;4.32;3.30;;;;;;;7.93;100.00;100907.22;5496941;26;20005;-68
2024/04/19 03:48:27;;;;;;;7.90;3.95;;;;;;;7.93;100.00;100899.09;5521179;26;20080;-68
2024/04/19 03:51:15;;;;;;;8.15;3.55;;;;;;;7.90;100.00;100891.47;5519227;26;19998;-68
2024/04/19 03:54:03;;;;;;;7.32;3.40;;;;;;;7.89;100.00;100887.13;5519683;26;20012;-69
2024/04/19 03:56:51;;;;;;;5.70;3.40;;;;;;;7.89;100.00;100879.78;5468986;26;20433;-69
2024/04/19 03:59:39;;;;;;;4.95;3.20;;;;;;;7.88;100.00;100872.69;5496862;26;20006;-68
2024/04/19 04:02:34;;;;;;;7.38;3.15;;;;;;;7.91;100.00;100868.66;5508644;25;20020;-68
2024/04/19 04:05:22;;;;;;;5.30;3.00;;;;;;;7.89;100.00;100862.69;5486658;26;20387;-68
2024/04/19 04:08:10;;;;;;;4.72;2.67;;;;;;;7.91;100.00;100855.09;5507369;26;20001;-68
2024/04/19 04:11:00;;;;;;;6.32;3.15;;;;;;;7.93;100.00;100850.25;5519542;26;20025;-69
2024/04/19 04:13:49;;;;;;;5.88;3.00;;;;;;;7.89;100.00;100841.00;5496741;26;19997;-68
2024/04/19 04:16:37;;;;;;;6.15;3.28;;;;;;;7.88;100.00;100840.16;5520344;26;20037;-69
2024/04/19 04:19:26;;;;;;;5.43;2.95;;;;;;;7.88;100.00;100842.06;5522072;26;19998;-68
2024/04/19 04:22:14;;;;;;;5.32;2.63;;;;;;;7.90;100.00;100835.31;5485061;26;20002;-67
2024/04/19 04:25:02;;;;;;;3.08;2.40;;;;;;;7.88;100.00;100828.47;5491081;26;20424;-68
2024/04/19 04:27:51;;;;;;;3.67;2.40;;;;;;;7.87;100.00;100835.00;5508740;26;20329;-67
2024/04/19 04:30:39;;;;;;;7.20;2.60;;;;;;;7.88;100.00;100834.72;5517403;26;19990;-69
2024/04/19 04:33:30;;;;;;;5.85;2.80;;;;;;;7.90;100.00;100824.44;5545634;26;20001;-69
2024/04/19 04:36:18;;;;;;;2.95;2.45;;;;;;;7.90;100.00;100820.91;5508098;26;20077;-68
2024/04/19 04:39:06;;;;;;;3.65;2.30;;;;;;;7.89;100.00;100824.72;5531110;26;20004;-64
2024/04/19 04:41:55;;;;;;;4.53;2.60;;;;;;;7.90;100.00;100826.34;5540942;26;20016;-66
2024/04/19 04:44:43;;;;;;;4.65;2.45;;;;;;;7.90;100.00;100820.91;5546860;26;19998;-64
2024/04/19 04:47:31;;;;;;;4.78;2.22;;;;;;;7.87;100.00;100813.28;5506931;26;20001;-70
2024/04/19 04:50:20;;;;;;;4.50;2.38;;;;;;;7.89;100.00;100811.16;5519662;26;20341;-69
2024/04/19 04:53:09;;;;;;;3.95;2.60;;;;;;;7.85;100.00;100807.28;5472680;26;20069;-68
2024/04/19 04:55:57;;;;;;;3.28;2.40;;;;;;;7.81;100.00;100800.72;5498743;26;20116;-69
2024/04/19 04:58:45;;;;;;;3.53;2.47;;;;;;;7.79;100.00;100800.97;5498155;26;20073;-68
2024/04/19 05:01:33;;;;;;;5.47;2.60;;;;;;;7.79;100.00;100786.59;5529700;26;20001;-69
2024/04/19 05:04:21;;;;;;;3.03;2.30;;;;;;;7.83;100.00;100793.16;5516073;26;20050;-68
2024/04/19 05:07:10;;;;;;;10.82;2.95;;;;;;;7.89;100.00;100792.16;5473397;26;19998;-68
2024/04/19 05:09:58;;;;;;;3.78;2.50;;;;;;;7.91;100.00;100795.41;5522930;26;19998;-68
2024/04/19 05:12:47;;;;;;;6.07;2.55;;;;;;;7.94;100.00;100791.38;5525232;26;20033;-67
2024/04/19 05:15:37;;;;;;;6.53;2.67;;;;;;;7.99;100.00;100786.06;5501703;26;20001;-68
2024/04/19 05:18:26;;;;;;;5.65;2.67;;;;;;;7.96;100.00;100776.53;5521221;26;19994;-68
2024/04/19 05:21:15;;;;;;;3.67;2.40;;;;;;;7.89;100.00;100787.56;5498328;26;20438;-67
2024/04/19 05:24:03;;;;;;;2.22;2.00;;;;;;;7.87;100.00;100788.88;5521972;26;20010;-68
2024/04/19 05:26:51;;;;;;;3.97;2.08;;;;;;;7.87;100.00;100788.88;5499635;26;20005;-67
2024/04/19 05:29:39;;;;;;;3.60;2.20;;;;;;;7.88;100.00;100785.91;5521196;26;20069;-66
2024/04/19 05:32:27;;;;;;;9.52;3.50;;;;;;;8.10;100.00;100777.78;5526434;26;20341;-69
2024/04/19 05:35:16;;;;;;;5.60;2.45;;;;;;;8.09;100.00;100784.28;5510715;26;20410;-68
2024/04/19 05:38:04;;;;;;;5.97;2.65;;;;;;;8.07;100.00;100782.88;5498843;26;20001;-68
2024/04/19 05:40:52;;;;;;;2.65;2.35;;;;;;;8.06;100.00;100770.41;5522000;26;20002;-68
2024/04/19 05:43:40;;;;;;;2.75;2.10;;;;;;;7.99;100.00;100765.16;5114609;26;10000485;-68
2024/04/19 05:46:29;;;;;;;5.22;2.17;;;;;;;7.98;100.00;100763.50;5472987;26;20012;-68
2024/04/19 05:49:17;;;;;;;2.40;2.10;;;;;;;7.97;100.00;100763.78;5421291;26;20456;-68
2024/04/19 05:52:07;;;;;;;2.72;2.38;;;;;;;7.96;100.00;100767.53;5516924;26;19997;-68
2024/04/19 05:54:55;;;;;;;4.40;2.70;;;;;;;7.98;100.00;100768.94;5517813;26;20001;-69
2024/04/19 05:57:43;;;;;;;2.67;1.95;;;;;;;7.98;100.00;100763.50;5491355;26;20073;-68
2024/04/19 06:00:31;;;;;;;2.63;2.00;;;;;;;8.01;100.00;100763.03;5455511;26;20016;-68
2024/04/19 06:03:19;;;;;;;4.05;2.00;;;;;;;8.05;100.00;100756.00;5456889;26;20666;-68
2024/04/19 06:06:08;;;;;;;5.10;2.40;;;;;;;8.06;100.00;100754.13;5476606;26;20027;-68
2024/04/19 06:08:56;;;;;;;3.95;2.25;;;;;;;8.04;100.00;100748.94;5467395;26;20031;-69
2024/04/19 06:11:44;;;;;;;6.25;2.53;;;;;;;8.07;100.00;100756.56;5492847;26;20030;-68
2024/04/19 06:14:32;;;;;;;4.05;2.58;;;;;;;8.06;100.00;100759.56;5456257;26;20002;-70
2024/04/19 06:17:20;;;;;;;5.18;2.75;;;;;;;8.07;100.00;100750.31;5518891;26;20008;-68
2024/04/19 06:20:08;;;;;;;6.70;3.20;;;;;;;8.11;100.00;100754.19;5519223;25;20406;-69
2024/04/19 06:22:56;;;;;;;5.93;3.25;;;;;;;8.11;100.00;100760.44;5501851;25;20068;-68
2024/04/19 06:25:45;;;;;;;6.43;3.40;;;;;;;8.14;100.00;100764.53;5556484;25;20009;-70
2024/04/19 06:28:35;;;;;;;7.82;4.25;;;;;;;8.10;100.00;100750.66;5556550;25;20068;-69
2024/04/19 06:31:23;;;;;;;7.88;3.60;;;;;;;8.21;100.00;100739.91;5516475;25;20008;-69
2024/04/19 06:34:11;;;;;;;7.22;3.67;;;;;;;8.23;100.00;100740.47;5530096;25;20068;-69
2024/04/19 06:36:59;;;;;;;7.05;3.53;;;;;;;8.21;100.00;100745.34;5531679;25;20360;-68
2024/04/19 06:39:48;;;;;;;9.02;3.67;;;;;;;8.23;100.00;100738.59;5530350;25;19997;-69
2024/04/19 06:42:52;;;;;;;7.50;3.70;;;;;;;8.25;100.00;100725.59;5533887;25;20008;-69
2024/04/19 06:45:40;;;;;;;10.48;3.90;;;;;;;8.29;100.00;100725.88;5554232;25;20339;-68
2024/04/19 06:48:28;;;;;;;9.30;3.67;;;;;;;8.30;100.00;100725.63;5503744;25;19996;-69
2024/04/19 06:51:17;;;;;;;7.75;3.75;;;;;;;8.32;100.00;100726.19;5556214;25;20080;-67
2024/04/19 06:54:05;;;;;;;8.00;3.88;;;;;;;8.37;100.00;100720.00;5520740;25;20001;-69
2024/04/19 06:56:53;;;;;;;12.63;4.95;;;;;;;8.36;100.00;100721.06;5552595;25;20001;-68
2024/04/19 06:59:42;;;;;;;10.98;4.47;;;;;;;8.36;100.00;100712.91;5533049;25;20000;-68
2024/04/19 07:02:30;;;;;;;12.13;4.72;;;;;;;8.38;100.00;100712.69;5529442;25;20005;-69
2024/04/19 07:05:19;;;;;;;12.30;5.07;;;;;;;8.42;100.00;100711.09;5555630;25;20037;-69
2024/04/19 07:08:07;;;;;;;11.18;4.60;;;;;;;8.45;100.00;100708.69;5554448;25;20000;-69
2024/04/19 07:10:55;;;;;;;10.27;4.40;;;;;;;8.47;100.00;100701.13;5531285;25;20001;-69
2024/04/19 07:13:46;;;;;;;10.40;4.45;;;;;;;8.51;100.00;100707.69;5480201;25;20025;-70
2024/04/19 07:16:34;;;;;;;10.40;4.18;;;;;;;8.51;100.00;100701.41;5527883;25;20001;-68
2024/04/19 07:19:24;;;;;;;10.32;4.43;;;;;;;8.56;100.00;100695.22;5556062;25;20016;-69
2024/04/19 07:22:14;;;;;;;12.13;4.35;;;;;;;8.58;100.00;100701.22;5556714;25;20068;-69
2024/04/19 07:25:02;;;;;;;9.48;4.00;;;;;;;8.60;100.00;100704.50;5555253;25;20009;-69
2024/04/19 07:27:51;;;;;;;9.85;4.00;;;;;;;8.63;100.00;100703.97;5557749;25;20008;-69
2024/04/19 07:30:39;;;;;;;11.25;4.03;;;;;;;8.65;100.00;100707.25;5429532;26;20006;-69
2024/04/19 07:33:27;;;;;;;11.10;3.95;;;;;;;8.67;100.00;100699.66;5541349;25;20452;-69
2024/04/19 07:36:15;;;;;;;12.20;3.85;;;;;;;8.66;100.00;100698.00;5517918;26;20010;-69
2024/04/19 07:39:03;;;;;;;11.90;3.60;;;;;;;8.67;100.00;100697.75;5542397;25;20000;-68
2024/04/19 07:41:52;;;;;;;10.98;3.20;;;;;;;8.69;100.00;100702.94;5526783;25;19997;-69
2024/04/19 07:44:40;;;;;;;10.40;3.28;;;;;;;8.68;100.00;100693.16;5548044;25;20362;-68
2024/04/19 07:47:28;;;;;;;8.32;2.75;;;;;;;8.69;100.00;100695.63;5554079;25;20004;-68
2024/04/19 07:50:16;;;;;;;8.27;2.35;;;;;;;8.68;100.00;100688.56;5568734;25;20002;-68
2024/04/19 07:53:04;;;;;;;9.02;2.67;;;;;;;8.67;100.00;100686.91;5516243;26;19997;-68
2024/04/19 07:55:52;;;;;;;6.45;2.30;;;;;;;8.64;100.00;100697.47;5472468;25;19993;-68
2024/04/19 07:58:40;;;;;;;7.22;2.38;;;;;;;8.62;100.00;100686.06;5528378;25;20012;-68
2024/04/19 08:01:29;;;;;;;10.20;2.75;;;;;;;8.61;100.00;100689.81;5558543;25;20000;-68
2024/04/19 08:04:17;;;;;;;7.43;2.38;;;;;;;8.63;100.00;100690.41;5534656;25;19993;-68
2024/04/19 08:07:05;;;;;;;6.03;2.00;;;;;;;8.64;100.00;100675.75;5535957;25;20013;-67
2024/04/19 08:09:53;;;;;;;4.13;2.03;;;;;;;8.65;100.00;100675.47;5527351;25;20064;-67
2024/04/19 08:12:43;;;;;;;7.85;2.60;;;;;;;8.68;100.00;100685.00;5561423;25;20010;-67
2024/04/19 08:15:32;;;;;;;8.73;2.85;;;;;;;8.72;100.00;100672.56;5535022;25;19997;-67
2024/04/19 08:18:20;;;;;;;12.07;3.38;;;;;;;8.77;100.00;100672.59;5560708;25;20000;-67
2024/04/19 08:21:08;;;;;;;8.50;2.67;;;;;;;8.83;100.00;100668.84;5561785;25;19993;-67
2024/04/19 08:23:56;;;;;;;11.23;3.30;;;;;;;8.96;100.00;100665.66;5534830;25;19996;-67
2024/04/19 08:26:44;;;;;;;10.32;2.95;;;;;;;9.04;100.00;100663.53;5533568;25;20076;-67
2024/04/19 08:29:32;;;;;;;13.30;3.55;;;;;;;9.08;100.00;100672.81;5561986;25;20004;-67
2024/04/19 08:32:23;;;;;;;13.60;3.53;;;;;;;9.10;100.00;100666.03;5537852;25;20049;-68
2024/04/19 08:35:11;;;;;;;17.02;3.78;;;;;;;9.13;100.00;100661.97;5537367;25;20007;-67
2024/04/19 08:38:00;;;;;;;15.52;3.33;;;;;;;9.15;100.00;100657.09;5487781;25;20123;-68
2024/04/19 08:40:59;;;;;;;15.02;3.47;;;;;;;9.16;100.00;100654.13;5562302;25;20028;-67
2024/04/19 08:43:47;;;;;;;15.40;3.55;;;;;;;9.16;100.00;100662.28;5534038;25;20013;-67
2024/04/19 08:46:37;;;;;;;16.20;3.50;;;;;;;9.16;100.00;100659.56;5563477;25;20347;-67
2024/04/19 08:49:27;;;;;;;18.50;3.85;;;;;;;9.15;100.00;100674.22;5561140;25;20052;-68
2024/04/19 08:52:17;;;;;;;11.15;3.33;;;;;;;9.16;100.00;100670.44;5514022;25;20004;-69
2024/04/19 08:55:26;;;;;;;11.88;3.40;;;;;;;9.16;100.00;100684.03;5573093;25;20001;-68
2024/04/19 08:58:14;;;;;;;10.13;2.45;;;;;;;9.05;100.00;100684.22;5579502;25;20028;-68
2024/04/19 09:01:02;;;;;;;4.50;2.00;;;;;;;8.99;100.00;100685.25;5513238;25;19997;-68
2024/04/19 09:03:52;;;;;;;5.85;2.17;;;;;;;8.85;100.00;100696.56;5576528;25;20193;-64
2024/04/19 09:06:42;;;;;;;4.95;2.00;;;;;;;8.82;100.00;100682.69;5554753;25;20041;-67
2024/04/19 09:09:31;;;;;;;7.15;2.20;;;;;;;8.78;100.00;100681.53;5521875;25;20005;-68
2024/04/19 09:12:19;;;;;;;5.50;2.17;;;;;;;8.81;100.00;100672.91;5561402;25;20457;-68
2024/04/19 09:15:07;;;;;;;12.43;2.58;;;;;;;8.82;100.00;100664.47;5561919;25;20469;-68
2024/04/19 09:17:55;;;;;;;8.32;2.70;;;;;;;8.87;100.00;100678.09;5562631;25;20016;-66
2024/04/19 09:20:47;;;;;;;10.52;2.67;;;;;;;8.91;100.00;100656.66;5563292;25;20465;-68
2024/04/19 09:23:35;;;;;;;8.82;2.60;;;;;;;8.99;100.00;100652.63;5535520;25;20047;-67
2024/04/19 09:26:23;;;;;;;7.28;2.65;;;;;;;9.07;100.00;100654.88;5535699;25;20470;-67
2024/04/19 09:29:11;;;;;;;8.25;2.50;;;;;;;9.22;100.00;100643.28;5539335;25;20008;-68
2024/04/19 09:32:02;;;;;;;13.07;3.22;;;;;;;9.29;100.00;100641.97;5509910;25;20033;-68
2024/04/19 09:34:50;;;;;;;11.85;3.25;;;;;;;9.34;100.00;100660.19;5534344;25;19997;-66
2024/04/19 09:37:39;;;;;;;12.75;3.50;;;;;;;9.35;100.00;100659.91;5534547;25;20000;-68
2024/04/19 09:40:28;;;;;;;9.90;2.83;;;;;;;9.26;100.00;100680.56;5498322;26;20302;-67
2024/04/19 09:43:20;;;;;;;8.90;2.70;;;;;;;9.26;100.00;100675.13;5524355;25;20077;-68
2024/04/19 09:46:10;;;;;;;12.18;3.10;;;;;;;9.30;100.00;100661.81;5498593;26;20009;-69
2024/04/19 09:49:02;;;;;;;13.10;3.00;;;;;;;9.31;100.00;100666.97;5494968;25;20005;-68
2024/04/19 09:51:51;;;;;;;12.10;2.95;;;;;;;9.35;100.00;100661.81;5559444;25;20463;-69
2024/04/19 09:54:40;;;;;;;12.55;3.22;;;;;;;9.39;100.00;100662.94;5509198;25;20072;-68
2024/04/19 09:57:30;;;;;;;8.27;2.83;;;;;;;9.43;100.00;100665.94;5559207;25;19996;-66
2024/04/19 10:00:21;;;;;;;8.48;2.55;;;;;;;9.46;100.00;100679.03;5510086;25;20336;-68
2024/04/19 10:03:11;;;;;;;9.52;2.30;;;;;;;9.42;100.00;100702.38;5511185;25;20461;-67
2024/04/19 10:05:59;;;;;;;5.95;1.90;;;;;;;9.30;100.00;100678.13;5560340;25;20004;-67
2024/04/19 10:08:48;;;;;;;4.47;1.70;;;;;;;9.38;100.00;100672.19;5537337;25;19997;-67
2024/04/19 10:11:47;;;;;;;3.53;1.40;;;;;;;9.43;100.00;100668.66;5559195;25;20007;-67
2024/04/19 10:14:35;;;;;;;5.38;1.95;;;;;;;9.34;100.00;100676.50;5533562;25;20001;-67
2024/04/19 10:17:24;;;;;;;6.15;2.03;;;;;;;9.28;100.00;100672.94;5559065;25;19993;-67
2024/04/19 10:20:12;;;;;;;5.43;1.90;;;;;;;9.27;100.00;100665.88;5560000;25;20001;-67
2024/04/19 10:23:00;;;;;;;6.82;2.03;;;;;;;9.30;100.00;100662.63;5544503;25;20005;-67
2024/04/19 10:25:48;;;;;;;4.70;1.83;;;;;;;9.33;100.00;100658.53;5508150;25;19997;-67
2024/04/19 10:28:36;;;;;;;7.07;1.70;;;;;;;9.36;100.00;100656.13;5542098;25;20069;-67
2024/04/19 10:31:24;;;;;;;6.78;2.28;;;;;;;9.45;100.00;100661.88;5560997;25;20429;-67
2024/04/19 10:34:13;;;;;;;5.35;1.90;;;;;;;9.52;100.00;100651.56;5534581;25;20000;-67
2024/04/19 10:37:01;;;;;;;6.60;2.25;;;;;;;9.64;100.00;100640.47;5560177;25;20005;-67
2024/04/19 10:39:49;;;;;;;7.38;2.10;;;;;;;9.66;100.00;100646.47;5561173;25;20008;-68
2024/04/19 10:42:37;;;;;;;7.88;2.33;;;;;;;9.71;100.00;100641.03;5482725;25;20011;-67
2024/04/19 10:45:31;;;;;;;8.07;2.10;;;;;;;9.78;100.00;100648.97;5560356;25;19993;-68
2024/04/19 10:48:21;;;;;;;7.55;2.55;;;;;;;9.80;100.00;100653.06;5544189;25;20008;-68
2024/04/19 10:51:16;;;;;;;10.68;2.42;;;;;;;9.74;100.00;100656.84;5514784;25;20001;-68
2024/04/19 10:54:04;;;;;;;8.13;2.13;;;;;;;9.74;100.00;100645.97;5559823;25;20001;-69
2024/04/19 10:56:54;;;;;;;12.00;3.00;;;;;;;9.73;100.00;100644.31;5532146;25;20011;-68
2024/04/19 10:59:44;;;;;;;9.18;2.42;;;;;;;9.77;100.00;100641.91;5510391;25;19997;-68
2024/04/19 11:02:33;;;;;;;11.73;3.20;;;;;;;9.80;100.00;100639.44;5533044;25;20286;-68
2024/04/19 11:05:22;;;;;;;12.55;3.20;;;;;;;9.79;100.00;100635.09;5561545;25;20041;-67
2024/04/19 11:08:10;;;;;;;9.07;3.03;;;;;;;9.80;100.00;100636.72;5515518;25;20001;-67
2024/04/19 11:10:59;;;;;;;12.10;3.08;;;;;;;9.81;100.00;100627.50;5557774;25;20001;-68
2024/04/19 11:13:47;;;;;;;9.20;2.67;;;;;;;9.87;100.00;100641.13;5534953;25;20012;-68
2024/04/19 11:16:35;;;;;;;16.48;3.72;;;;;;;9.93;100.00;100618.25;5557623;25;20008;-67
2024/04/19 11:19:24;;;;;;;11.00;3.28;;;;;;;9.98;100.00;100648.19;5532580;25;20069;-69
2024/04/19 11:22:12;;;;;;;15.45;3.95;;;;;;;10.03;100.00;100624.56;5509958;25;20456;-67
2024/04/19 11:25:00;;;;;;;15.85;3.50;;;;;;;10.11;100.00;100641.44;5532436;25;20000;-67
2024/04/19 11:27:49;;;;;;;10.63;3.45;;;;;;;10.14;100.00;100630.81;5516004;25;20011;-68
2024/04/19 11:30:39;;;;;;;13.05;3.20;;;;;;;10.16;100.00;100633.28;5560357;25;20001;-69
2024/04/19 11:33:28;;;;;;;13.90;3.20;;;;;;;10.17;100.00;100640.34;5504943;25;20001;-67
2024/04/19 11:36:16;;;;;;;14.93;4.15;;;;;;;10.21;100.00;100668.69;5507520;25;19997;-68
2024/04/19 11:39:04;;;;;;;16.08;3.65;;;;;;;10.23;100.00;100650.97;5543238;25;20433;-67
2024/04/19 11:41:52;;;;;;;14.43;4.18;;;;;;;10.24;100.00;100635.47;5558337;25;20000;-68
2024/04/19 11:44:42;;;;;;;14.13;3.35;;;;;;;10.26;100.00;100638.72;5558473;25;19992;-67
2024/04/19 11:47:30;;;;;;;15.73;3.88;;;;;;;10.29;100.00;100659.19;5531803;25;20320;-67
2024/04/19 11:50:22;;;;;;;13.93;3.60;;;;;;;10.27;100.00;100648.56;5480062;25;19996;-67
2024/04/19 11:53:10;;;;;;;12.00;3.10;;;;;;;10.29;100.00;100632.75;5558522;25;20032;-67
2024/04/19 11:55:58;;;;;;;18.13;4.20;;;;;;;10.34;100.00;100646.41;5558500;25;20127;-67
2024/04/19 11:58:52;;;;;;;15.02;3.58;;;;;;;10.44;100.00;100634.72;5556707;25;19996;-67
2024/04/19 12:01:40;;;;;;;17.63;4.00;;;;;;;10.45;100.00;100677.19;5556933;25;20038;-67
2024/04/19 12:04:29;;;;;;;12.13;3.13;;;;;;;10.13;100.00;100710.88;5556816;25;19992;-68
2024/04/19 12:07:17;;;;;;;10.48;3.03;;;;;;;9.91;100.00;100696.63;5553168;25;19993;-67
2024/04/19 12:10:06;;;;;;;11.38;3.00;;;;;;;9.70;100.00;100696.56;5482394;25;19997;-67
2024/04/19 12:12:54;;;;;;;9.88;2.70;;;;;;;9.70;100.00;100706.63;5480101;25;20061;-66
2024/04/19 12:16:02;;;;;;;10.45;2.67;;;;;;;9.66;100.00;100709.03;5516635;25;20457;-67
2024/04/19 12:19:11;;;;;;;8.65;2.65;;;;;;;9.51;100.00;100728.00;5530173;25;19997;-67
2024/04/19 12:22:00;;;;;;;8.18;2.67;;;;;;;9.39;100.00;100726.28;5530800;25;20001;-67
2024/04/19 12:24:49;;;;;;;11.73;2.88;;;;;;;9.39;100.00;100733.66;5529910;25;19996;-67
2024/04/19 12:27:38;;;;;;;11.05;3.00;;;;;;;9.43;100.00;100709.44;5556082;25;20413;-67
2024/04/19 12:30:27;;;;;;;11.65;2.83;;;;;;;9.59;100.00;100703.00;5557950;25;20380;-66
2024/04/19 12:33:16;;;;;;;8.45;2.63;;;;;;;9.77;100.00;100696.31;5555161;25;20004;-67
2024/04/19 12:36:05;;;;;;;11.07;3.00;;;;;;;9.90;100.00;100712.13;5485421;25;20007;-67
2024/04/19 12:38:53;;;;;;;10.65;2.88;;;;;;;9.94;100.00;100710.53;5558694;25;20472;-66
2024/04/19 12:41:41;;;;;;;8.10;2.60;;;;;;;9.93;100.00;100698.00;5556884;25;20019;-67
2024/04/19 12:44:30;;;;;;;9.80;2.95;;;;;;;10.01;100.00;100745.66;5506995;25;19996;-65
2024/04/19 12:47:18;;;;;;;11.02;3.00;;;;;;;10.14;100.00;100717.94;5531785;25;20007;-67
2024/04/19 12:50:06;;;;;;;8.18;2.53;;;;;;;10.30;100.00;100698.97;5560160;25;20042;-67
2024/04/19 12:52:54;;;;;;;9.68;2.70;;;;;;;10.48;100.00;100700.34;5559764;25;19996;-67
2024/04/19 12:55:42;;;;;;;6.30;2.50;;;;;;;10.61;100.00;100744.22;5557587;25;20039;-66
2024/04/19 12:58:32;;;;;;;8.98;2.53;;;;;;;10.61;100.00;100711.53;5508664;25;20041;-67
2024/04/19 13:01:20;;;;;;;7.28;2.33;;;;;;;10.63;100.00;100713.97;5534468;25;20449;-67
2024/04/19 13:04:09;;;;;;;6.32;2.45;;;;;;;10.60;100.00;100720.78;5534005;25;20001;-67
2024/04/19 13:06:57;;;;;;;9.57;2.55;;;;;;;10.53;100.00;100725.69;5550110;25;20021;-66
2024/04/19 13:09:45;;;;;;;6.65;2.20;;;;;;;10.38;100.00;100736.56;5568772;25;20012;-66